Terminal Aerodrome Forecast
Issued by NWS Nashville, TN

Home | Current Version | Previous Version | Text Only | Print | Product List | Glossary On
Versions: 1 2 3 4 5 6 7 8 9 10 11 12 13 14 15 16 17
000
FTUS44 KOHX 271130
TAFCSV
TAF
KCSV 271130Z 2712/2812 22005KT P6SM BKN100
     FM271700 22005KT P6SM -SHRA VCTS BKN050CB
     FM280300 22004KT 5SM BR VCSH OVC035
     FM280800 24004KT 3SM BR OVC011=

USA.gov is the U.S. government's official web portal to all federal, state and local government web resources and services.